Terminal Aerodrome Forecast
Issued by NWS

Home | Current Version | Previous Version | Text Only | Print | Product List | Glossary On
Versions: 1 2 3 4 5 6 7 8 9 10 11 12 13 14 15 16 17 18 19 20 21 22 23 24 25 26 27 28 29 30
000
FTUS43 KILX 302340
TAFDEC
TAF
KDEC 302340Z 0100/0124 14015G22KT P6SM VCTS SCT025CB OVC040
      TEMPO 0100/0103 3SM TSRA BR BKN015CB
     FM010300 17017G24KT P6SM BKN045
     FM011300 22018G30KT P6SM BKN025=

USA.gov is the U.S. government's official web portal to all federal, state and local government web resources and services.